TimeCDT,TemperatureF,Dew PointF,Humidity,Sea Level PressureIn,VisibilityMPH,Wind Direction,Wind SpeedMPH,Gust SpeedMPH,PrecipitationIn,Events,Conditions,WindDirDegrees,DateUTC
12:53 AM,27.0,12.9,56,30.55,10.0,North,8.1,-,N/A,,Overcast,360,2014-03-23 05:53:00
1:53 AM,27.0,10.9,51,30.55,10.0,North,5.8,-,N/A,,Overcast,10,2014-03-23 06:53:00
2:53 AM,24.1,9.0,53,30.55,10.0,North,5.8,-,N/A,,Clear,10,2014-03-23 07:53:00
3:53 AM,21.9,9.0,58,30.55,10.0,North,3.5,-,N/A,,Clear,10,2014-03-23 08:53:00
4:53 AM,19.9,9.0,62,30.55,10.0,NNE,3.5,-,N/A,,Clear,20,2014-03-23 09:53:00
5:53 AM,19.0,9.0,65,30.56,10.0,North,4.6,-,N/A,,Clear,350,2014-03-23 10:53:00
6:53 AM,17.1,9.0,71,30.57,10.0,NNW,3.5,-,N/A,,Clear,340,2014-03-23 11:53:00
7:53 AM,16.0,9.0,74,30.58,10.0,NW,3.5,-,N/A,,Clear,320,2014-03-23 12:53:00
8:53 AM,23.0,12.9,65,30.58,10.0,NNE,3.5,-,N/A,,Clear,20,2014-03-23 13:53:00
9:53 AM,27.0,10.9,51,30.57,10.0,ENE,5.8,-,N/A,,Clear,70,2014-03-23 14:53:00
10:53 AM,30.0,10.0,43,30.57,10.0,Variable,4.6,-,N/A,,Clear,0,2014-03-23 15:53:00
11:53 AM,32.0,8.1,37,30.55,10.0,North,5.8,-,N/A,,Clear,350,2014-03-23 16:53:00
12:53 PM,34.0,8.1,34,30.52,10.0,ENE,8.1,-,N/A,,Clear,60,2014-03-23 17:53:00
1:53 PM,35.1,8.1,33,30.50,10.0,Calm,Calm,-,N/A,,Clear,0,2014-03-23 18:53:00
2:53 PM,37.0,9.0,31,30.45,10.0,Variable,3.5,-,N/A,,Clear,0,2014-03-23 19:53:00
3:53 PM,39.0,10.0,30,30.40,10.0,Variable,4.6,-,N/A,,Clear,0,2014-03-23 20:53:00
4:53 PM,39.0,9.0,29,30.38,10.0,SE,5.8,-,N/A,,Clear,130,2014-03-23 21:53:00
5:53 PM,39.0,9.0,29,30.35,10.0,East,4.6,-,N/A,,Clear,90,2014-03-23 22:53:00
6:53 PM,37.0,10.0,33,30.35,10.0,East,4.6,-,N/A,,Clear,100,2014-03-23 23:53:00
7:53 PM,33.1,10.0,38,30.33,10.0,ESE,5.8,-,N/A,,Clear,120,2014-03-24 00:53:00
8:53 PM,30.0,10.0,43,30.34,10.0,East,4.6,-,N/A,,Clear,100,2014-03-24 01:53:00
9:53 PM,28.0,10.9,49,30.34,10.0,ESE,6.9,-,N/A,,Clear,110,2014-03-24 02:53:00
10:53 PM,27.0,12.0,53,30.35,10.0,East,5.8,-,N/A,,Scattered Clouds,100,2014-03-24 03:53:00
11:53 PM,30.0,15.1,54,30.35,10.0,ESE,5.8,-,N/A,,Overcast,110,2014-03-24 04:53:00